Aeroporto :
LOGIN :

Iscrizione | Disclaimer

   EN    FR    IT 

 










Sommario :    VFR   VFR Marginale   IFR   IFR Intensivo   IFR Molto Intensivo
Visibilità : 
Base nubi : 
>= 8 km
>= 3000ft
5 / 8 km
1000 / 3000 ft
1500m / 5 km
500 / 1000 ft
800 / 1500m
200 / 500 ft
< 800m
< 200 ft
Simboli :   Temporali  Nebbia  Neve Forte  Precipitazioni Forti  Vento > 20 kt
SIGMETs :   Varie  Temporali  Ghiacco  Turbolenza  Onda orograficha  Ceneri Vulcaniche






- Altitudine del aeroporto : 93 ft
- Codice IATA : XRY


LEJR - Jerez

ULTIMO METAR :
  • 271230Z 35009KT 310V050 9999 FEW030 26/13 Q1014

METARs OBSOLETI :
  • 271200Z 36008KT 320V060 9999 FEW030 25/13 Q1015
  • 271130Z 35008KT 320V030 9999 FEW030 25/12 Q1015
  • 271100Z 35010KT 300V020 9999 FEW034 24/12 Q1015
  • 271030Z 35008KT 290V030 CAVOK 24/12 Q1016
  • 271000Z 32007KT 280V020 CAVOK 23/13 Q1016

TAF TAF LEJR
Valido dal 27 a 12 ore il 28 a 12 ore UTC


271100Z 2712/2812 34008KT CAVOK TX28/2715Z TN13/2806Z
BECMG 2714/2716 27010KT
BECMG 2720/2722 VRB02KT



MetMap, La meteo Aeronautica in un colpo d'occhio ! - Copyright ORBIFLY Dicembre 2007 - Disclaimer

ORBIFLY MET'MAP TEAM :

Programmazione e sviluppo : Alexandra Zaïnal
Concezione : Baudouin d'Aumeries
Aiuto per la programmazione : Marc-Olivier Méhu
Supporto tecnico e logistico : Manuel Goepfert
Aiuto per la traduzione : Arnaldo La Scala

Contatto : metmap@orbifly.com




FONTI E CREDITI :

   NOAA